Terminal Aerodrome Forecast
Issued by NWS Wilmington, OH

Current Version | Previous Version | Graphics & Text | Print | Product List | Glossary On
Versions: 1 2 3 4 5 6 7 8 9 10 11 12 13 14 15 16 17 18 19 20 21 22 23 24 25
824
FTUS41 KILN 252342
TAFILN
TAF
KILN 252342Z 2600/2624 14005KT P6SM SKC
     FM260900 19008KT P6SM VCSH SCT050 BKN100
     FM261400 26013G23KT P6SM -SHRA SCT015 OVC025
     FM261700 28012G22KT P6SM BKN025
     FM262100 27011KT P6SM SCT025=

USA.gov is the U.S. government's official web portal to all federal, state and local government web resources and services.